sensor_id;sensor_type;location;lat;lon;timestamp;P1;P2;P0
41382;PMS5003;27971;53.902;9.118;2023-02-14T00:05:35;5.32;4.43;
41382;PMS5003;27971;53.902;9.118;2023-02-14T00:07:38;7.19;6.7;
41382;PMS5003;27971;53.902;9.118;2023-02-14T00:09:41;7.33;6.59;
41382;PMS5003;27971;53.902;9.118;2023-02-14T00:11:44;6.99;6.57;
41382;PMS5003;27971;53.902;9.118;2023-02-14T00:13:47;6.77;6.25;
41382;PMS5003;27971;53.902;9.118;2023-02-14T00:15:50;6.92;5.85;
41382;PMS5003;27971;53.902;9.118;2023-02-14T00:17:54;7.35;6.14;
41382;PMS5003;27971;53.902;9.118;2023-02-14T00:19:56;8.4;7.59;
41382;PMS5003;27971;53.902;9.118;2023-02-14T00:22:00;6.67;5.48;
41382;PMS5003;27971;53.902;9.118;2023-02-14T00:24:02;8.11;6.84;
41382;PMS5003;27971;53.902;9.118;2023-02-14T00:26:05;7.65;6.76;
41382;PMS5003;27971;53.902;9.118;2023-02-14T00:28:08;7.58;6.81;
41382;PMS5003;27971;53.902;9.118;2023-02-14T00:30:12;7.57;6.82;
41382;PMS5003;27971;53.902;9.118;2023-02-14T00:32:14;6.31;5.84;
41382;PMS5003;27971;53.902;9.118;2023-02-14T00:34:16;8.43;6.26;
41382;PMS5003;27971;53.902;9.118;2023-02-14T00:36:19;8.36;7.61;
41382;PMS5003;27971;53.902;9.118;2023-02-14T00:38:22;9.07;7.43;
41382;PMS5003;27971;53.902;9.118;2023-02-14T00:40:25;7.96;7.11;
41382;PMS5003;27971;53.902;9.118;2023-02-14T00:42:28;7.13;6.44;
41382;PMS5003;27971;53.902;9.118;2023-02-14T00:44:31;5.94;5.37;
41382;PMS5003;27971;53.902;9.118;2023-02-14T00:46:34;7.13;6.6;
41382;PMS5003;27971;53.902;9.118;2023-02-14T00:48:36;8.17;6.66;
41382;PMS5003;27971;53.902;9.118;2023-02-14T00:50:40;7.57;6.49;
41382;PMS5003;27971;53.902;9.118;2023-02-14T00:52:43;6.42;5.24;
41382;PMS5003;27971;53.902;9.118;2023-02-14T00:54:46;5.81;5.25;
41382;PMS5003;27971;53.902;9.118;2023-02-14T00:56:49;6.61;6.19;
41382;PMS5003;27971;53.902;9.118;2023-02-14T00:58:52;8.11;7.01;
41382;PMS5003;27971;53.902;9.118;2023-02-14T01:00:55;7.12;5.88;
41382;PMS5003;27971;53.902;9.118;2023-02-14T01:02:57;6.58;6.01;
41382;PMS5003;27971;53.902;9.118;2023-02-14T01:05:00;6.79;5.71;
41382;PMS5003;27971;53.902;9.118;2023-02-14T01:07:03;6.23;5.94;
41382;PMS5003;27971;53.902;9.118;2023-02-14T01:09:06;8.07;7.7;
41382;PMS5003;27971;53.902;9.118;2023-02-14T01:11:10;7.21;6.81;
41382;PMS5003;27971;53.902;9.118;2023-02-14T01:13:12;7.29;6.43;
41382;PMS5003;27971;53.902;9.118;2023-02-14T01:15:14;6.96;6.8;
41382;PMS5003;27971;53.902;9.118;2023-02-14T01:17:17;7.54;6.93;
41382;PMS5003;27971;53.902;9.118;2023-02-14T01:19:20;6.65;6.32;
41382;PMS5003;27971;53.902;9.118;2023-02-14T01:21:24;6.62;6.4;
41382;PMS5003;27971;53.902;9.118;2023-02-14T01:23:26;7.8;7.38;
41382;PMS5003;27971;53.902;9.118;2023-02-14T01:25:29;6.96;6.86;
41382;PMS5003;27971;53.902;9.118;2023-02-14T01:27:32;7.6;6.7;
41382;PMS5003;27971;53.902;9.118;2023-02-14T01:29:35;6.31;5.86;
41382;PMS5003;27971;53.902;9.118;2023-02-14T01:31:38;7.43;6.7;
41382;PMS5003;27971;53.902;9.118;2023-02-14T01:33:41;9.17;6.76;
41382;PMS5003;27971;53.902;9.118;2023-02-14T01:35:44;6.72;5.96;
41382;PMS5003;27971;53.902;9.118;2023-02-14T01:37:48;7.23;6.43;
41382;PMS5003;27971;53.902;9.118;2023-02-14T01:39:51;7.55;6.43;
41382;PMS5003;27971;53.902;9.118;2023-02-14T01:41:54;6.7;6.7;
41382;PMS5003;27971;53.902;9.118;2023-02-14T01:43:58;6.86;6.04;
41382;PMS5003;27971;53.902;9.118;2023-02-14T01:45:59;7.18;6.65;
41382;PMS5003;27971;53.902;9.118;2023-02-14T01:48:03;7.13;6.52;
41382;PMS5003;27971;53.902;9.118;2023-02-14T01:50:07;7.15;6.21;
41382;PMS5003;27971;53.902;9.118;2023-02-14T01:52:09;6.52;5.88;
41382;PMS5003;27971;53.902;9.118;2023-02-14T01:54:12;7.24;6.68;
41382;PMS5003;27971;53.902;9.118;2023-02-14T01:56:17;6.37;5.59;
41382;PMS5003;27971;53.902;9.118;2023-02-14T01:58:19;5.99;5.47;
41382;PMS5003;27971;53.902;9.118;2023-02-14T02:00:22;5.65;5.65;
41382;PMS5003;27971;53.902;9.118;2023-02-14T02:02:25;7.77;6.25;
41382;PMS5003;27971;53.902;9.118;2023-02-14T02:04:29;7.26;5.4;
41382;PMS5003;27971;53.902;9.118;2023-02-14T02:06:32;6.49;5.35;
41382;PMS5003;27971;53.902;9.118;2023-02-14T02:08:34;6.9;5.93;
41382;PMS5003;27971;53.902;9.118;2023-02-14T02:10:37;6.78;6.09;
41382;PMS5003;27971;53.902;9.118;2023-02-14T02:12:40;7.01;5.71;
41382;PMS5003;27971;53.902;9.118;2023-02-14T02:14:43;6.78;5.54;
41382;PMS5003;27971;53.902;9.118;2023-02-14T02:16:51;7.19;6.0;
41382;PMS5003;27971;53.902;9.118;2023-02-14T02:18:52;7.96;7.25;
41382;PMS5003;27971;53.902;9.118;2023-02-14T02:22:01;7.21;6.51;
41382;PMS5003;27971;53.902;9.118;2023-02-14T02:23:07;7.68;7.32;
41382;PMS5003;27971;53.902;9.118;2023-02-14T02:24:57;7.74;7.0;
41382;PMS5003;27971;53.902;9.118;2023-02-14T02:27:15;7.01;6.08;
41382;PMS5003;27971;53.902;9.118;2023-02-14T02:29:07;6.67;5.93;
41382;PMS5003;27971;53.902;9.118;2023-02-14T02:31:20;6.15;5.46;
41382;PMS5003;27971;53.902;9.118;2023-02-14T02:33:14;5.32;5.32;
41382;PMS5003;27971;53.902;9.118;2023-02-14T02:35:20;7.86;6.85;
41382;PMS5003;27971;53.902;9.118;2023-02-14T02:37:19;7.03;5.64;
41382;PMS5003;27971;53.902;9.118;2023-02-14T02:39:20;5.88;5.31;
41382;PMS5003;27971;53.902;9.118;2023-02-14T02:41:21;7.32;5.68;
41382;PMS5003;27971;53.902;9.118;2023-02-14T02:43:27;6.76;6.22;
41382;PMS5003;27971;53.902;9.118;2023-02-14T02:45:26;6.76;6.31;
41382;PMS5003;27971;53.902;9.118;2023-02-14T02:47:28;7.09;6.53;
41382;PMS5003;27971;53.902;9.118;2023-02-14T02:49:31;7.23;5.93;
41382;PMS5003;27971;53.902;9.118;2023-02-14T02:51:34;7.22;6.06;
41382;PMS5003;27971;53.902;9.118;2023-02-14T02:53:37;7.08;5.59;
41382;PMS5003;27971;53.902;9.118;2023-02-14T02:55:40;6.12;5.9;
41382;PMS5003;27971;53.902;9.118;2023-02-14T02:57:41;7.23;5.51;
41382;PMS5003;27971;53.902;9.118;2023-02-14T02:59:43;7.47;6.33;
41382;PMS5003;27971;53.902;9.118;2023-02-14T03:01:47;6.1;5.37;
41382;PMS5003;27971;53.902;9.118;2023-02-14T03:03:50;6.71;6.09;
41382;PMS5003;27971;53.902;9.118;2023-02-14T03:05:52;6.77;6.55;
41382;PMS5003;27971;53.902;9.118;2023-02-14T03:07:54;7.47;6.8;
41382;PMS5003;27971;53.902;9.118;2023-02-14T03:09:57;6.66;6.07;
41382;PMS5003;27971;53.902;9.118;2023-02-14T03:12:02;7.15;6.43;
41382;PMS5003;27971;53.902;9.118;2023-02-14T03:14:07;7.67;6.59;
41382;PMS5003;27971;53.902;9.118;2023-02-14T03:16:11;7.84;6.01;
41382;PMS5003;27971;53.902;9.118;2023-02-14T03:18:10;7.59;6.85;
41382;PMS5003;27971;53.902;9.118;2023-02-14T03:20:12;6.14;5.81;
41382;PMS5003;27971;53.902;9.118;2023-02-14T03:22:16;7.11;5.98;
41382;PMS5003;27971;53.902;9.118;2023-02-14T03:24:18;7.02;6.06;
41382;PMS5003;27971;53.902;9.118;2023-02-14T03:26:21;6.95;6.22;
41382;PMS5003;27971;53.902;9.118;2023-02-14T03:28:24;7.4;6.05;
41382;PMS5003;27971;53.902;9.118;2023-02-14T03:30:27;7.14;6.2;
41382;PMS5003;27971;53.902;9.118;2023-02-14T03:32:30;6.33;5.02;
41382;PMS5003;27971;53.902;9.118;2023-02-14T03:34:31;6.99;5.65;
41382;PMS5003;27971;53.902;9.118;2023-02-14T03:36:34;7.31;6.28;
41382;PMS5003;27971;53.902;9.118;2023-02-14T03:38:38;6.92;6.65;
41382;PMS5003;27971;53.902;9.118;2023-02-14T03:40:40;6.81;6.42;
41382;PMS5003;27971;53.902;9.118;2023-02-14T03:42:42;7.17;6.48;
41382;PMS5003;27971;53.902;9.118;2023-02-14T03:44:44;7.12;5.83;
41382;PMS5003;27971;53.902;9.118;2023-02-14T03:46:48;7.03;6.62;
41382;PMS5003;27971;53.902;9.118;2023-02-14T03:48:51;6.44;5.84;
41382;PMS5003;27971;53.902;9.118;2023-02-14T03:50:53;6.77;5.49;
41382;PMS5003;27971;53.902;9.118;2023-02-14T03:52:56;7.82;5.76;
41382;PMS5003;27971;53.902;9.118;2023-02-14T03:54:59;7.15;6.88;
41382;PMS5003;27971;53.902;9.118;2023-02-14T03:57:03;7.73;7.28;
41382;PMS5003;27971;53.902;9.118;2023-02-14T03:59:06;5.95;5.7;
41382;PMS5003;27971;53.902;9.118;2023-02-14T04:01:10;6.68;5.73;
41382;PMS5003;27971;53.902;9.118;2023-02-14T04:03:11;5.74;5.35;
41382;PMS5003;27971;53.902;9.118;2023-02-14T04:05:14;7.52;6.28;
41382;PMS5003;27971;53.902;9.118;2023-02-14T04:07:17;5.64;5.22;
41382;PMS5003;27971;53.902;9.118;2023-02-14T04:09:19;5.98;5.32;
41382;PMS5003;27971;53.902;9.118;2023-02-14T04:11:22;5.34;5.19;
41382;PMS5003;27971;53.902;9.118;2023-02-14T04:13:24;6.88;6.26;
41382;PMS5003;27971;53.902;9.118;2023-02-14T04:15:27;8.27;6.59;
41382;PMS5003;27971;53.902;9.118;2023-02-14T04:17:29;6.21;5.83;
41382;PMS5003;27971;53.902;9.118;2023-02-14T04:19:31;7.31;6.81;
41382;PMS5003;27971;53.902;9.118;2023-02-14T04:21:34;6.17;5.76;
41382;PMS5003;27971;53.902;9.118;2023-02-14T04:23:37;7.66;6.37;
41382;PMS5003;27971;53.902;9.118;2023-02-14T04:25:40;6.69;5.44;
41382;PMS5003;27971;53.902;9.118;2023-02-14T04:27:42;7.51;6.5;
41382;PMS5003;27971;53.902;9.118;2023-02-14T04:29:45;5.67;5.17;
41382;PMS5003;27971;53.902;9.118;2023-02-14T04:31:48;5.71;5.26;
41382;PMS5003;27971;53.902;9.118;2023-02-14T04:33:50;5.56;4.99;
41382;PMS5003;27971;53.902;9.118;2023-02-14T04:35:53;5.64;5.57;
41382;PMS5003;27971;53.902;9.118;2023-02-14T04:37:55;6.32;5.53;
41382;PMS5003;27971;53.902;9.118;2023-02-14T04:39:57;5.98;5.71;
41382;PMS5003;27971;53.902;9.118;2023-02-14T04:42:00;5.88;5.41;
41382;PMS5003;27971;53.902;9.118;2023-02-14T04:44:03;5.31;4.98;
41382;PMS5003;27971;53.902;9.118;2023-02-14T04:46:05;6.86;5.7;
41382;PMS5003;27971;53.902;9.118;2023-02-14T04:48:08;6.1;5.52;
41382;PMS5003;27971;53.902;9.118;2023-02-14T04:50:10;5.74;5.14;
41382;PMS5003;27971;53.902;9.118;2023-02-14T04:52:13;4.94;4.8;
41382;PMS5003;27971;53.902;9.118;2023-02-14T04:54:16;6.53;5.68;
41382;PMS5003;27971;53.902;9.118;2023-02-14T04:56:18;6.59;5.46;
41382;PMS5003;27971;53.902;9.118;2023-02-14T04:58:21;5.58;5.34;
41382;PMS5003;27971;53.902;9.118;2023-02-14T05:00:23;6.34;5.94;
41382;PMS5003;27971;53.902;9.118;2023-02-14T05:02:26;5.19;5.01;
41382;PMS5003;27971;53.902;9.118;2023-02-14T05:04:28;5.38;4.64;
41382;PMS5003;27971;53.902;9.118;2023-02-14T05:06:31;6.46;6.24;
41382;PMS5003;27971;53.902;9.118;2023-02-14T05:08:34;5.89;5.66;
41382;PMS5003;27971;53.902;9.118;2023-02-14T05:10:36;5.72;5.07;
41382;PMS5003;27971;53.902;9.118;2023-02-14T05:12:39;6.62;5.59;
41382;PMS5003;27971;53.902;9.118;2023-02-14T05:14:41;7.06;6.03;
41382;PMS5003;27971;53.902;9.118;2023-02-14T05:16:43;6.68;5.47;
41382;PMS5003;27971;53.902;9.118;2023-02-14T05:18:47;5.97;5.47;
41382;PMS5003;27971;53.902;9.118;2023-02-14T05:20:49;6.71;6.04;
41382;PMS5003;27971;53.902;9.118;2023-02-14T05:22:53;7.36;7.06;
41382;PMS5003;27971;53.902;9.118;2023-02-14T05:24:54;6.13;5.3;
41382;PMS5003;27971;53.902;9.118;2023-02-14T05:26:57;5.23;4.67;
41382;PMS5003;27971;53.902;9.118;2023-02-14T05:28:59;6.43;5.1;
41382;PMS5003;27971;53.902;9.118;2023-02-14T05:31:01;6.07;5.21;
41382;PMS5003;27971;53.902;9.118;2023-02-14T05:33:04;6.33;5.94;
41382;PMS5003;27971;53.902;9.118;2023-02-14T05:35:06;5.19;4.81;
41382;PMS5003;27971;53.902;9.118;2023-02-14T05:37:09;5.63;4.9;
41382;PMS5003;27971;53.902;9.118;2023-02-14T05:39:11;7.0;6.14;
41382;PMS5003;27971;53.902;9.118;2023-02-14T05:41:13;4.96;4.51;
41382;PMS5003;27971;53.902;9.118;2023-02-14T05:43:16;6.21;5.71;
41382;PMS5003;27971;53.902;9.118;2023-02-14T05:45:18;6.06;5.57;
41382;PMS5003;27971;53.902;9.118;2023-02-14T05:47:21;5.39;5.02;
41382;PMS5003;27971;53.902;9.118;2023-02-14T05:49:23;5.4;5.4;
41382;PMS5003;27971;53.902;9.118;2023-02-14T05:51:25;5.31;5.17;
41382;PMS5003;27971;53.902;9.118;2023-02-14T05:53:28;6.58;5.64;
41382;PMS5003;27971;53.902;9.118;2023-02-14T05:55:30;6.59;5.64;
41382;PMS5003;27971;53.902;9.118;2023-02-14T05:57:33;6.76;6.14;
41382;PMS5003;27971;53.902;9.118;2023-02-14T05:59:35;6.12;5.49;
41382;PMS5003;27971;53.902;9.118;2023-02-14T06:01:38;6.41;6.01;
41382;PMS5003;27971;53.902;9.118;2023-02-14T06:03:41;5.57;5.02;
41382;PMS5003;27971;53.902;9.118;2023-02-14T06:05:43;6.56;5.8;
41382;PMS5003;27971;53.902;9.118;2023-02-14T06:07:46;6.08;5.71;
41382;PMS5003;27971;53.902;9.118;2023-02-14T06:09:48;5.57;5.44;
41382;PMS5003;27971;53.902;9.118;2023-02-14T06:11:51;4.52;3.97;
41382;PMS5003;27971;53.902;9.118;2023-02-14T06:13:53;4.43;4.29;
41382;PMS5003;27971;53.902;9.118;2023-02-14T06:15:55;6.64;6.08;
41382;PMS5003;27971;53.902;9.118;2023-02-14T06:17:58;5.86;5.57;
41382;PMS5003;27971;53.902;9.118;2023-02-14T06:20:01;7.12;6.29;
41382;PMS5003;27971;53.902;9.118;2023-02-14T06:22:03;5.83;5.22;
41382;PMS5003;27971;53.902;9.118;2023-02-14T06:24:05;4.97;4.97;
41382;PMS5003;27971;53.902;9.118;2023-02-14T06:26:08;6.22;5.71;
41382;PMS5003;27971;53.902;9.118;2023-02-14T06:28:10;6.0;5.3;
41382;PMS5003;27971;53.902;9.118;2023-02-14T06:30:14;5.97;5.93;
41382;PMS5003;27971;53.902;9.118;2023-02-14T06:32:15;6.36;5.66;
41382;PMS5003;27971;53.902;9.118;2023-02-14T06:34:17;5.49;4.69;
41382;PMS5003;27971;53.902;9.118;2023-02-14T06:36:20;5.94;5.57;
41382;PMS5003;27971;53.902;9.118;2023-02-14T06:38:22;6.44;6.12;
41382;PMS5003;27971;53.902;9.118;2023-02-14T06:40:24;6.71;6.03;
41382;PMS5003;27971;53.902;9.118;2023-02-14T06:42:27;5.62;5.47;
41382;PMS5003;27971;53.902;9.118;2023-02-14T06:44:29;5.96;5.57;
41382;PMS5003;27971;53.902;9.118;2023-02-14T06:46:32;6.36;5.63;
41382;PMS5003;27971;53.902;9.118;2023-02-14T06:48:35;6.47;5.37;
41382;PMS5003;27971;53.902;9.118;2023-02-14T06:50:37;6.13;5.98;
41382;PMS5003;27971;53.902;9.118;2023-02-14T06:52:40;5.83;4.94;
41382;PMS5003;27971;53.902;9.118;2023-02-14T06:54:43;5.88;5.3;
41382;PMS5003;27971;53.902;9.118;2023-02-14T06:56:46;5.6;5.29;
41382;PMS5003;27971;53.902;9.118;2023-02-14T06:58:49;5.46;4.9;
41382;PMS5003;27971;53.902;9.118;2023-02-14T07:00:53;6.87;5.7;
41382;PMS5003;27971;53.902;9.118;2023-02-14T07:02:55;5.97;5.57;
41382;PMS5003;27971;53.902;9.118;2023-02-14T07:04:57;7.06;5.92;
41382;PMS5003;27971;53.902;9.118;2023-02-14T07:07:00;6.12;5.3;
41382;PMS5003;27971;53.902;9.118;2023-02-14T07:09:02;5.76;5.22;
41382;PMS5003;27971;53.902;9.118;2023-02-14T07:11:04;6.01;5.48;
41382;PMS5003;27971;53.902;9.118;2023-02-14T07:13:07;5.26;4.48;
41382;PMS5003;27971;53.902;9.118;2023-02-14T07:15:11;5.67;5.07;
41382;PMS5003;27971;53.902;9.118;2023-02-14T07:17:13;5.69;4.94;
41382;PMS5003;27971;53.902;9.118;2023-02-14T07:19:16;5.99;5.4;
41382;PMS5003;27971;53.902;9.118;2023-02-14T07:21:18;5.1;4.6;
41382;PMS5003;27971;53.902;9.118;2023-02-14T07:23:21;6.26;5.99;
41382;PMS5003;27971;53.902;9.118;2023-02-14T07:25:23;5.84;5.38;
41382;PMS5003;27971;53.902;9.118;2023-02-14T07:27:25;6.0;5.77;
41382;PMS5003;27971;53.902;9.118;2023-02-14T07:29:28;6.1;5.33;
41382;PMS5003;27971;53.902;9.118;2023-02-14T07:31:30;5.98;5.74;
41382;PMS5003;27971;53.902;9.118;2023-02-14T07:33:33;5.69;5.29;
41382;PMS5003;27971;53.902;9.118;2023-02-14T07:35:35;4.6;4.43;
41382;PMS5003;27971;53.902;9.118;2023-02-14T07:37:37;7.19;6.12;
41382;PMS5003;27971;53.902;9.118;2023-02-14T07:39:40;6.38;5.94;
41382;PMS5003;27971;53.902;9.118;2023-02-14T07:41:42;5.82;5.42;
41382;PMS5003;27971;53.902;9.118;2023-02-14T07:43:45;5.77;5.37;
41382;PMS5003;27971;53.902;9.118;2023-02-14T07:45:48;3.94;3.7;
41382;PMS5003;27971;53.902;9.118;2023-02-14T07:47:51;5.46;4.9;
41382;PMS5003;27971;53.902;9.118;2023-02-14T07:49:53;6.65;6.18;
41382;PMS5003;27971;53.902;9.118;2023-02-14T07:51:55;5.64;4.93;
41382;PMS5003;27971;53.902;9.118;2023-02-14T07:53:58;6.36;5.3;
41382;PMS5003;27971;53.902;9.118;2023-02-14T07:56:00;5.88;5.34;
41382;PMS5003;27971;53.902;9.118;2023-02-14T07:58:03;6.66;5.88;
41382;PMS5003;27971;53.902;9.118;2023-02-14T08:00:06;6.4;6.27;
41382;PMS5003;27971;53.902;9.118;2023-02-14T08:02:08;6.06;5.94;
41382;PMS5003;27971;53.902;9.118;2023-02-14T08:04:10;5.98;4.99;
41382;PMS5003;27971;53.902;9.118;2023-02-14T08:06:13;7.33;5.9;
41382;PMS5003;27971;53.902;9.118;2023-02-14T08:08:15;5.44;5.18;
41382;PMS5003;27971;53.902;9.118;2023-02-14T08:10:17;5.56;5.09;
41382;PMS5003;27971;53.902;9.118;2023-02-14T08:12:20;5.76;5.39;
41382;PMS5003;27971;53.902;9.118;2023-02-14T08:14:22;5.08;4.98;
41382;PMS5003;27971;53.902;9.118;2023-02-14T08:16:24;6.11;5.61;
41382;PMS5003;27971;53.902;9.118;2023-02-14T08:18:27;6.44;5.44;
41382;PMS5003;27971;53.902;9.118;2023-02-14T08:20:29;6.36;5.69;
41382;PMS5003;27971;53.902;9.118;2023-02-14T08:22:32;6.56;6.06;
41382;PMS5003;27971;53.902;9.118;2023-02-14T08:24:34;6.08;5.31;
41382;PMS5003;27971;53.902;9.118;2023-02-14T08:26:36;5.09;4.62;
41382;PMS5003;27971;53.902;9.118;2023-02-14T08:28:39;5.82;5.06;
41382;PMS5003;27971;53.902;9.118;2023-02-14T08:30:42;5.33;4.87;
41382;PMS5003;27971;53.902;9.118;2023-02-14T08:32:44;5.39;4.89;
41382;PMS5003;27971;53.902;9.118;2023-02-14T08:34:46;5.16;4.51;
41382;PMS5003;27971;53.902;9.118;2023-02-14T08:36:50;6.26;6.01;
41382;PMS5003;27971;53.902;9.118;2023-02-14T08:38:52;5.91;5.74;
41382;PMS5003;27971;53.902;9.118;2023-02-14T08:40:58;6.46;5.6;
41382;PMS5003;27971;53.902;9.118;2023-02-14T08:42:58;5.38;5.24;
41382;PMS5003;27971;53.902;9.118;2023-02-14T08:45:00;5.74;5.64;
41382;PMS5003;27971;53.902;9.118;2023-02-14T08:47:03;6.13;5.63;
41382;PMS5003;27971;53.902;9.118;2023-02-14T08:49:05;7.02;6.43;
41382;PMS5003;27971;53.902;9.118;2023-02-14T08:51:08;6.39;6.01;
41382;PMS5003;27971;53.902;9.118;2023-02-14T08:53:11;5.78;5.51;
41382;PMS5003;27971;53.902;9.118;2023-02-14T08:55:13;6.81;6.2;
41382;PMS5003;27971;53.902;9.118;2023-02-14T08:57:15;5.76;5.49;
41382;PMS5003;27971;53.902;9.118;2023-02-14T08:59:18;5.71;5.51;
41382;PMS5003;27971;53.902;9.118;2023-02-14T09:01:20;7.79;7.2;
41382;PMS5003;27971;53.902;9.118;2023-02-14T09:03:23;6.84;6.34;
41382;PMS5003;27971;53.902;9.118;2023-02-14T09:05:25;6.27;5.42;
41382;PMS5003;27971;53.902;9.118;2023-02-14T09:07:28;7.29;6.49;
41382;PMS5003;27971;53.902;9.118;2023-02-14T09:09:30;6.11;5.58;
41382;PMS5003;27971;53.902;9.118;2023-02-14T09:11:34;7.5;6.56;
41382;PMS5003;27971;53.902;9.118;2023-02-14T09:13:36;7.53;6.87;
41382;PMS5003;27971;53.902;9.118;2023-02-14T09:15:38;7.6;7.6;
41382;PMS5003;27971;53.902;9.118;2023-02-14T09:17:41;7.58;7.01;
41382;PMS5003;27971;53.902;9.118;2023-02-14T09:19:43;7.43;6.97;
41382;PMS5003;27971;53.902;9.118;2023-02-14T09:21:46;6.98;6.71;
41382;PMS5003;27971;53.902;9.118;2023-02-14T09:23:48;6.48;6.09;
41382;PMS5003;27971;53.902;9.118;2023-02-14T09:25:50;7.51;6.88;
41382;PMS5003;27971;53.902;9.118;2023-02-14T09:27:53;6.18;5.92;
41382;PMS5003;27971;53.902;9.118;2023-02-14T09:29:55;10.51;8.67;
41382;PMS5003;27971;53.902;9.118;2023-02-14T09:31:58;7.7;6.87;
41382;PMS5003;27971;53.902;9.118;2023-02-14T09:34:00;10.2;9.03;
41382;PMS5003;27971;53.902;9.118;2023-02-14T09:36:03;13.06;11.27;
41382;PMS5003;27971;53.902;9.118;2023-02-14T09:38:08;10.77;9.31;
41382;PMS5003;27971;53.902;9.118;2023-02-14T09:40:11;11.74;10.18;
41382;PMS5003;27971;53.902;9.118;2023-02-14T09:42:15;13.99;12.35;
41382;PMS5003;27971;53.902;9.118;2023-02-14T09:44:18;10.01;9.27;
41382;PMS5003;27971;53.902;9.118;2023-02-14T09:46:18;10.61;9.13;
41382;PMS5003;27971;53.902;9.118;2023-02-14T09:48:22;13.05;10.67;
41382;PMS5003;27971;53.902;9.118;2023-02-14T09:50:23;12.04;10.05;
41382;PMS5003;27971;53.902;9.118;2023-02-14T09:52:26;12.45;10.2;
41382;PMS5003;27971;53.902;9.118;2023-02-14T09:54:28;12.62;10.59;
41382;PMS5003;27971;53.902;9.118;2023-02-14T09:56:33;11.7;10.25;
41382;PMS5003;27971;53.902;9.118;2023-02-14T09:58:35;10.76;8.83;
41382;PMS5003;27971;53.902;9.118;2023-02-14T10:00:37;12.15;10.08;
41382;PMS5003;27971;53.902;9.118;2023-02-14T10:02:40;13.0;10.64;
41382;PMS5003;27971;53.902;9.118;2023-02-14T10:04:53;12.71;10.8;
41382;PMS5003;27971;53.902;9.118;2023-02-14T10:06:45;13.01;9.95;
41382;PMS5003;27971;53.902;9.118;2023-02-14T10:08:50;13.0;10.36;
41382;PMS5003;27971;53.902;9.118;2023-02-14T10:10:51;13.1;11.46;
41382;PMS5003;27971;53.902;9.118;2023-02-14T10:12:53;12.61;9.89;
41382;PMS5003;27971;53.902;9.118;2023-02-14T10:14:56;12.86;11.54;
41382;PMS5003;27971;53.902;9.118;2023-02-14T10:17:00;12.48;11.32;
41382;PMS5003;27971;53.902;9.118;2023-02-14T10:19:02;12.12;9.86;
41382;PMS5003;27971;53.902;9.118;2023-02-14T10:21:04;13.92;10.85;
41382;PMS5003;27971;53.902;9.118;2023-02-14T10:23:10;12.03;10.42;
41382;PMS5003;27971;53.902;9.118;2023-02-14T10:25:13;12.17;10.27;
41382;PMS5003;27971;53.902;9.118;2023-02-14T10:27:14;8.19;7.66;
41382;PMS5003;27971;53.902;9.118;2023-02-14T10:29:15;11.42;9.7;
41382;PMS5003;27971;53.902;9.118;2023-02-14T10:31:18;11.03;9.39;
41382;PMS5003;27971;53.902;9.118;2023-02-14T10:33:20;12.62;10.11;
41382;PMS5003;27971;53.902;9.118;2023-02-14T10:35:25;12.59;11.13;
41382;PMS5003;27971;53.902;9.118;2023-02-14T10:37:30;10.91;9.2;
41382;PMS5003;27971;53.902;9.118;2023-02-14T10:39:32;11.77;9.48;
41382;PMS5003;27971;53.902;9.118;2023-02-14T10:41:32;12.22;10.64;
41382;PMS5003;27971;53.902;9.118;2023-02-14T10:43:34;12.37;10.2;
41382;PMS5003;27971;53.902;9.118;2023-02-14T10:45:37;11.18;9.86;
41382;PMS5003;27971;53.902;9.118;2023-02-14T10:47:40;11.06;9.92;
41382;PMS5003;27971;53.902;9.118;2023-02-14T10:49:43;11.1;10.46;
41382;PMS5003;27971;53.902;9.118;2023-02-14T10:51:45;10.87;9.24;
41382;PMS5003;27971;53.902;9.118;2023-02-14T10:53:50;11.34;9.49;
41382;PMS5003;27971;53.902;9.118;2023-02-14T10:55:51;12.32;10.31;
41382;PMS5003;27971;53.902;9.118;2023-02-14T10:57:53;9.61;7.84;
41382;PMS5003;27971;53.902;9.118;2023-02-14T10:59:56;11.12;9.99;
41382;PMS5003;27971;53.902;9.118;2023-02-14T11:01:59;13.56;11.41;
41382;PMS5003;27971;53.902;9.118;2023-02-14T11:04:02;12.38;10.09;
41382;PMS5003;27971;53.902;9.118;2023-02-14T11:06:04;11.15;9.97;
41382;PMS5003;27971;53.902;9.118;2023-02-14T11:08:12;10.58;8.78;
41382;PMS5003;27971;53.902;9.118;2023-02-14T11:10:09;10.86;9.28;
41382;PMS5003;27971;53.902;9.118;2023-02-14T11:12:13;10.07;9.24;
41382;PMS5003;27971;53.902;9.118;2023-02-14T11:14:19;9.57;8.09;
41382;PMS5003;27971;53.902;9.118;2023-02-14T11:16:22;9.53;8.35;
41382;PMS5003;27971;53.902;9.118;2023-02-14T11:18:21;11.68;8.59;
41382;PMS5003;27971;53.902;9.118;2023-02-14T11:20:24;11.18;9.07;
41382;PMS5003;27971;53.902;9.118;2023-02-14T11:22:27;9.83;9.1;
41382;PMS5003;27971;53.902;9.118;2023-02-14T11:24:29;10.24;8.02;
41382;PMS5003;27971;53.902;9.118;2023-02-14T11:26:31;8.33;7.6;
41382;PMS5003;27971;53.902;9.118;2023-02-14T11:28:33;11.17;9.01;
41382;PMS5003;27971;53.902;9.118;2023-02-14T11:30:37;10.93;9.78;
41382;PMS5003;27971;53.902;9.118;2023-02-14T11:32:38;10.47;9.06;
41382;PMS5003;27971;53.902;9.118;2023-02-14T11:34:43;10.12;9.52;
41382;PMS5003;27971;53.902;9.118;2023-02-14T11:36:43;10.91;9.45;
41382;PMS5003;27971;53.902;9.118;2023-02-14T11:38:45;9.96;8.69;
41382;PMS5003;27971;53.902;9.118;2023-02-14T11:40:51;8.75;7.94;
41382;PMS5003;27971;53.902;9.118;2023-02-14T11:42:52;10.18;9.07;
41382;PMS5003;27971;53.902;9.118;2023-02-14T11:44:55;8.07;7.8;
41382;PMS5003;27971;53.902;9.118;2023-02-14T11:49:00;11.56;11.13;
41382;PMS5003;27971;53.902;9.118;2023-02-14T11:51:03;9.81;8.56;
41382;PMS5003;27971;53.902;9.118;2023-02-14T11:53:05;10.24;9.17;
41382;PMS5003;27971;53.902;9.118;2023-02-14T11:55:19;9.34;8.03;
41382;PMS5003;27971;53.902;9.118;2023-02-14T11:57:12;9.71;9.22;
41382;PMS5003;27971;53.902;9.118;2023-02-14T11:59:20;10.12;9.02;
41382;PMS5003;27971;53.902;9.118;2023-02-14T12:01:20;9.65;9.16;
41382;PMS5003;27971;53.902;9.118;2023-02-14T12:03:20;8.7;8.15;
41382;PMS5003;27971;53.902;9.118;2023-02-14T12:05:25;8.61;7.74;
41382;PMS5003;27971;53.902;9.118;2023-02-14T12:07:26;10.69;8.13;
41382;PMS5003;27971;53.902;9.118;2023-02-14T12:09:28;11.53;8.57;
41382;PMS5003;27971;53.902;9.118;2023-02-14T12:11:31;11.43;9.77;
41382;PMS5003;27971;53.902;9.118;2023-02-14T12:13:33;8.8;7.73;
41382;PMS5003;27971;53.902;9.118;2023-02-14T12:15:37;10.37;9.08;
41382;PMS5003;27971;53.902;9.118;2023-02-14T12:17:39;9.84;8.47;
41382;PMS5003;27971;53.902;9.118;2023-02-14T12:19:43;9.16;7.85;
41382;PMS5003;27971;53.902;9.118;2023-02-14T12:21:46;10.75;8.02;
41382;PMS5003;27971;53.902;9.118;2023-02-14T12:23:49;10.07;7.92;
41382;PMS5003;27971;53.902;9.118;2023-02-14T12:25:51;9.63;8.62;
41382;PMS5003;27971;53.902;9.118;2023-02-14T12:27:54;8.84;7.91;
41382;PMS5003;27971;53.902;9.118;2023-02-14T12:29:57;9.19;8.28;
41382;PMS5003;27971;53.902;9.118;2023-02-14T12:31:59;10.46;8.48;
41382;PMS5003;27971;53.902;9.118;2023-02-14T12:34:00;9.75;8.35;
41382;PMS5003;27971;53.902;9.118;2023-02-14T12:36:05;10.27;9.21;
41382;PMS5003;27971;53.902;9.118;2023-02-14T12:38:07;9.3;8.72;
41382;PMS5003;27971;53.902;9.118;2023-02-14T12:40:11;10.44;9.23;
41382;PMS5003;27971;53.902;9.118;2023-02-14T12:42:16;9.92;8.43;
41382;PMS5003;27971;53.902;9.118;2023-02-14T12:44:16;11.57;10.0;
41382;PMS5003;27971;53.902;9.118;2023-02-14T12:46:26;10.12;8.97;
41382;PMS5003;27971;53.902;9.118;2023-02-14T12:48:22;9.34;8.7;